Time;durP1;ratioP1;P1;durP2;ratioP2;P2;SDS_P1;SDS_P2;PMS_P1;PMS_P2;Temp;Humidity;BMP_temperature;BMP_pressure;BME280_temperature;BME280_humidity;BME280_pressure;Samples;Min_cycle;Max_cycle;Signal;HPM_P1;HPM_P2
2019/06/28 00:00:18;;;;;;;5;4.349999;;;;;;;17.1;64.94434;95808.74;;;;
2019/06/28 00:01:20;;;;;;;5;4.349999;;;;;;;17.1;64.94434;95808.74;;;;
2019/06/28 00:02:21;;;;;;;5;4.349999;;;;;;;17.1;64.94434;95808.74;;;;
2019/06/28 00:03:22;;;;;;;5;4.349999;;;;;;;17.1;64.94434;95808.74;;;;
2019/06/28 00:04:23;;;;;;;5;4.349999;;;;;;;17.1;64.94434;95808.74;;;;
2019/06/28 00:05:24;;;;;;;5;4.349999;;;;;;;17.1;64.94434;95808.74;;;;
2019/06/28 00:06:26;;;;;;;5;4.349999;;;;;;;17.1;64.94434;95808.74;;;;
2019/06/28 00:07:27;;;;;;;5.5;4;;;;;;;16.86;65.91016;95806.65;;;;
2019/06/28 00:08:28;;;;;;;5.5;4;;;;;;;16.86;65.91016;95806.65;;;;
2019/06/28 00:09:29;;;;;;;5.5;4;;;;;;;16.86;65.91016;95806.65;;;;
2019/06/28 00:10:30;;;;;;;5.5;4;;;;;;;16.86;65.91016;95806.65;;;;
2019/06/28 00:11:31;;;;;;;5.5;4;;;;;;;16.86;65.91016;95806.65;;;;
2019/06/28 00:12:32;;;;;;;5.5;4;;;;;;;16.86;65.91016;95806.65;;;;
2019/06/28 00:13:33;;;;;;;5.5;4;;;;;;;16.86;65.91016;95806.65;;;;
2019/06/28 00:14:34;;;;;;;5.5;4;;;;;;;16.86;65.91016;95806.65;;;;
2019/06/28 00:15:36;;;;;;;5.5;4;;;;;;;16.86;65.91016;95806.65;;;;
2019/06/28 00:16:37;;;;;;;5.5;4;;;;;;;16.86;65.91016;95806.65;;;;
2019/06/28 00:17:38;;;;;;;6.400001;4.2;;;;;;;16.56;66.89844;95805.47;;;;
2019/06/28 00:18:39;;;;;;;6.400001;4.2;;;;;;;16.56;66.89844;95805.47;;;;
2019/06/28 00:19:40;;;;;;;6.400001;4.2;;;;;;;16.56;66.89844;95805.47;;;;
2019/06/28 00:20:41;;;;;;;6.400001;4.2;;;;;;;16.56;66.89844;95805.47;;;;
2019/06/28 00:21:42;;;;;;;6.400001;4.2;;;;;;;16.56;66.89844;95805.47;;;;
2019/06/28 00:22:43;;;;;;;6.400001;4.2;;;;;;;16.56;66.89844;95805.47;;;;
2019/06/28 00:23:44;;;;;;;6.400001;4.2;;;;;;;16.56;66.89844;95805.47;;;;
2019/06/28 00:24:45;;;;;;;6.400001;4.2;;;;;;;16.56;66.89844;95805.47;;;;
2019/06/28 00:25:46;;;;;;;6.400001;4.2;;;;;;;16.56;66.89844;95805.47;;;;
2019/06/28 00:26:47;;;;;;;6.400001;4.2;;;;;;;16.56;66.89844;95805.47;;;;
2019/06/28 00:27:49;;;;;;;6.400001;4.2;;;;;;;16.56;66.89844;95805.47;;;;
2019/06/28 00:28:50;;;;;;;4.3;3.9;;;;;;;16.36;67.66113;95814.26;;;;
2019/06/28 00:29:51;;;;;;;4.3;3.9;;;;;;;16.36;67.66113;95814.26;;;;
2019/06/28 00:30:52;;;;;;;4.3;3.9;;;;;;;16.36;67.66113;95814.26;;;;
2019/06/28 00:31:53;;;;;;;4.3;3.9;;;;;;;16.36;67.66113;95814.26;;;;
2019/06/28 00:32:54;;;;;;;4.3;3.9;;;;;;;16.36;67.66113;95814.26;;;;
2019/06/28 00:33:55;;;;;;;4.3;3.9;;;;;;;16.36;67.66113;95814.26;;;;
2019/06/28 00:34:56;;;;;;;4.3;3.9;;;;;;;16.36;67.66113;95814.26;;;;
2019/06/28 00:35:57;;;;;;;4.3;3.9;;;;;;;16.36;67.66113;95814.26;;;;
2019/06/28 00:36:58;;;;;;;4.3;3.9;;;;;;;16.36;67.66113;95814.26;;;;
2019/06/28 00:38:00;;;;;;;4.3;3.9;;;;;;;16.36;67.66113;95814.26;;;;
2019/06/28 00:39:01;;;;;;;4.75;3.95;;;;;;;16.13;68.00586;95812.29;;;;
2019/06/28 00:40:02;;;;;;;4.75;3.95;;;;;;;16.13;68.00586;95812.29;;;;
2019/06/28 00:41:04;;;;;;;4.75;3.95;;;;;;;16.13;68.00586;95812.29;;;;
2019/06/28 00:42:05;;;;;;;4.75;3.95;;;;;;;16.13;68.00586;95812.29;;;;
2019/06/28 00:43:06;;;;;;;4.75;3.95;;;;;;;16.13;68.00586;95812.29;;;;
2019/06/28 00:44:07;;;;;;;4.75;3.95;;;;;;;16.13;68.00586;95812.29;;;;
2019/06/28 00:45:08;;;;;;;4.75;3.95;;;;;;;16.13;68.00586;95812.29;;;;
2019/06/28 00:46:10;;;;;;;4.75;3.95;;;;;;;16.13;68.00586;95812.29;;;;
2019/06/28 00:47:11;;;;;;;4.75;3.95;;;;;;;16.13;68.00586;95812.29;;;;
2019/06/28 00:48:13;;;;;;;4.75;3.95;;;;;;;16.13;68.00586;95812.29;;;;
2019/06/28 00:49:14;;;;;;;4.75;3.95;;;;;;;16.13;68.00586;95812.29;;;;
2019/06/28 00:50:15;;;;;;;6.2;4.1;;;;;;;15.99;68.13574;95810.24;;;;
2019/06/28 00:51:16;;;;;;;6.2;4.1;;;;;;;15.99;68.13574;95810.24;;;;
2019/06/28 00:52:17;;;;;;;6.2;4.1;;;;;;;15.99;68.13574;95810.24;;;;
2019/06/28 00:53:18;;;;;;;6.2;4.1;;;;;;;15.99;68.13574;95810.24;;;;
2019/06/28 00:54:19;;;;;;;6.2;4.1;;;;;;;15.99;68.13574;95810.24;;;;
2019/06/28 00:55:20;;;;;;;6.2;4.1;;;;;;;15.99;68.13574;95810.24;;;;
2019/06/28 00:56:21;;;;;;;6.2;4.1;;;;;;;15.99;68.13574;95810.24;;;;
2019/06/28 00:57:22;;;;;;;6.2;4.1;;;;;;;15.99;68.13574;95810.24;;;;
2019/06/28 00:58:24;;;;;;;6.2;4.1;;;;;;;15.99;68.13574;95810.24;;;;
2019/06/28 00:59:25;;;;;;;6.2;4.1;;;;;;;15.99;68.13574;95810.24;;;;
2019/06/28 01:00:26;;;;;;;5.1;3.6;;;;;;;15.78;68.25684;95813.26;;;;
2019/06/28 01:01:27;;;;;;;5.1;3.6;;;;;;;15.78;68.25684;95813.26;;;;
2019/06/28 01:02:28;;;;;;;5.1;3.6;;;;;;;15.78;68.25684;95813.26;;;;
2019/06/28 01:03:29;;;;;;;5.1;3.6;;;;;;;15.78;68.25684;95813.26;;;;
2019/06/28 01:04:30;;;;;;;5.1;3.6;;;;;;;15.78;68.25684;95813.26;;;;
2019/06/28 01:05:32;;;;;;;5.1;3.6;;;;;;;15.78;68.25684;95813.26;;;;
2019/06/28 01:06:33;;;;;;;5.1;3.6;;;;;;;15.78;68.25684;95813.26;;;;
2019/06/28 01:07:34;;;;;;;5.1;3.6;;;;;;;15.78;68.25684;95813.26;;;;
2019/06/28 01:08:35;;;;;;;5.1;3.6;;;;;;;15.78;68.25684;95813.26;;;;
2019/06/28 01:09:36;;;;;;;5.1;3.6;;;;;;;15.78;68.25684;95813.26;;;;
2019/06/28 01:10:38;;;;;;;4.5;3.85;;;;;;;15.62;68.37305;95813.22;;;;
2019/06/28 01:11:39;;;;;;;4.5;3.85;;;;;;;15.62;68.37305;95813.22;;;;
2019/06/28 01:12:40;;;;;;;4.5;3.85;;;;;;;15.62;68.37305;95813.22;;;;
2019/06/28 01:13:41;;;;;;;4.5;3.85;;;;;;;15.62;68.37305;95813.22;;;;
2019/06/28 01:14:42;;;;;;;4.5;3.85;;;;;;;15.62;68.37305;95813.22;;;;
2019/06/28 01:15:43;;;;;;;4.5;3.85;;;;;;;15.62;68.37305;95813.22;;;;
2019/06/28 01:16:44;;;;;;;4.5;3.85;;;;;;;15.62;68.37305;95813.22;;;;
2019/06/28 01:17:46;;;;;;;4.5;3.85;;;;;;;15.62;68.37305;95813.22;;;;
2019/06/28 01:18:47;;;;;;;4.5;3.85;;;;;;;15.62;68.37305;95813.22;;;;
2019/06/28 01:19:48;;;;;;;4.5;3.85;;;;;;;15.62;68.37305;95813.22;;;;
2019/06/28 01:20:49;;;;;;;4.5;3.85;;;;;;;15.62;68.37305;95813.22;;;;
2019/06/28 01:21:50;;;;;;;4.3;3.9;;;;;;;15.4;68.91309;95810.58;;;;
2019/06/28 01:22:52;;;;;;;4.3;3.9;;;;;;;15.4;68.91309;95810.58;;;;
2019/06/28 01:23:53;;;;;;;4.3;3.9;;;;;;;15.4;68.91309;95810.58;;;;
2019/06/28 01:24:54;;;;;;;4.3;3.9;;;;;;;15.4;68.91309;95810.58;;;;
2019/06/28 01:25:55;;;;;;;4.3;3.9;;;;;;;15.4;68.91309;95810.58;;;;
2019/06/28 01:26:56;;;;;;;4.3;3.9;;;;;;;15.4;68.91309;95810.58;;;;
2019/06/28 01:27:57;;;;;;;4.3;3.9;;;;;;;15.4;68.91309;95810.58;;;;
2019/06/28 01:28:59;;;;;;;4.3;3.9;;;;;;;15.4;68.91309;95810.58;;;;
2019/06/28 01:30:00;;;;;;;4.3;3.9;;;;;;;15.4;68.91309;95810.58;;;;
2019/06/28 01:31:01;;;;;;;4.3;3.9;;;;;;;15.4;68.91309;95810.58;;;;
2019/06/28 01:32:03;;;;;;;4.75;4.149999;;;;;;;15.25;69.32227;95798.57;;;;
2019/06/28 01:33:04;;;;;;;4.75;4.149999;;;;;;;15.25;69.32227;95798.57;;;;
2019/06/28 01:34:05;;;;;;;4.75;4.149999;;;;;;;15.25;69.32227;95798.57;;;;
2019/06/28 01:35:06;;;;;;;4.75;4.149999;;;;;;;15.25;69.32227;95798.57;;;;
2019/06/28 01:36:07;;;;;;;4.75;4.149999;;;;;;;15.25;69.32227;95798.57;;;;
2019/06/28 01:37:08;;;;;;;4.75;4.149999;;;;;;;15.25;69.32227;95798.57;;;;
2019/06/28 01:38:10;;;;;;;4.75;4.149999;;;;;;;15.25;69.32227;95798.57;;;;
2019/06/28 01:39:11;;;;;;;4.75;4.149999;;;;;;;15.25;69.32227;95798.57;;;;
2019/06/28 01:40:12;;;;;;;4.75;4.149999;;;;;;;15.25;69.32227;95798.57;;;;
2019/06/28 01:41:14;;;;;;;4.75;4.149999;;;;;;;15.25;69.32227;95798.57;;;;
2019/06/28 01:42:15;;;;;;;4.75;4.149999;;;;;;;15.25;69.32227;95798.57;;;;
2019/06/28 01:43:16;;;;;;;5.599999;3.95;;;;;;;15.05;69.84375;95795.15;;;;
2019/06/28 01:44:17;;;;;;;5.599999;3.95;;;;;;;15.05;69.84375;95795.15;;;;
2019/06/28 01:45:18;;;;;;;5.599999;3.95;;;;;;;15.05;69.84375;95795.15;;;;
2019/06/28 01:46:20;;;;;;;5.599999;3.95;;;;;;;15.05;69.84375;95795.15;;;;
2019/06/28 01:47:21;;;;;;;5.599999;3.95;;;;;;;15.05;69.84375;95795.15;;;;
2019/06/28 01:48:22;;;;;;;5.599999;3.95;;;;;;;15.05;69.84375;95795.15;;;;
2019/06/28 01:49:23;;;;;;;5.599999;3.95;;;;;;;15.05;69.84375;95795.15;;;;
2019/06/28 01:50:24;;;;;;;5.599999;3.95;;;;;;;15.05;69.84375;95795.15;;;;
2019/06/28 01:51:26;;;;;;;5.599999;3.95;;;;;;;15.05;69.84375;95795.15;;;;
2019/06/28 01:52:27;;;;;;;5.599999;3.95;;;;;;;15.05;69.84375;95795.15;;;;
2019/06/28 01:53:28;;;;;;;4.6;4.199999;;;;;;;14.91;70.61133;95797.02;;;;
2019/06/28 01:54:29;;;;;;;4.6;4.199999;;;;;;;14.91;70.61133;95797.02;;;;
2019/06/28 01:55:30;;;;;;;4.6;4.199999;;;;;;;14.91;70.61133;95797.02;;;;
2019/06/28 01:56:32;;;;;;;4.6;4.199999;;;;;;;14.91;70.61133;95797.02;;;;
2019/06/28 01:57:33;;;;;;;4.6;4.199999;;;;;;;14.91;70.61133;95797.02;;;;
2019/06/28 01:58:34;;;;;;;4.6;4.199999;;;;;;;14.91;70.61133;95797.02;;;;
2019/06/28 01:59:36;;;;;;;4.6;4.199999;;;;;;;14.91;70.61133;95797.02;;;;
2019/06/28 02:00:37;;;;;;;4.6;4.199999;;;;;;;14.91;70.61133;95797.02;;;;
2019/06/28 02:01:38;;;;;;;4.6;4.199999;;;;;;;14.91;70.61133;95797.02;;;;
2019/06/28 02:02:40;;;;;;;4.6;4.199999;;;;;;;14.91;70.61133;95797.02;;;;
2019/06/28 02:03:41;;;;;;;4.099999;3.7;;;;;;;14.73;71.26172;95787.36;;;;
2019/06/28 02:04:42;;;;;;;4.099999;3.7;;;;;;;14.73;71.26172;95787.36;;;;
2019/06/28 02:05:43;;;;;;;4.099999;3.7;;;;;;;14.73;71.26172;95787.36;;;;
2019/06/28 02:06:45;;;;;;;4.099999;3.7;;;;;;;14.73;71.26172;95787.36;;;;
2019/06/28 02:07:46;;;;;;;4.099999;3.7;;;;;;;14.73;71.26172;95787.36;;;;
2019/06/28 02:08:47;;;;;;;4.099999;3.7;;;;;;;14.73;71.26172;95787.36;;;;
2019/06/28 02:09:48;;;;;;;4.099999;3.7;;;;;;;14.73;71.26172;95787.36;;;;
2019/06/28 02:10:49;;;;;;;4.099999;3.7;;;;;;;14.73;71.26172;95787.36;;;;
2019/06/28 02:11:50;;;;;;;4.099999;3.7;;;;;;;14.73;71.26172;95787.36;;;;
2019/06/28 02:12:51;;;;;;;4.099999;3.7;;;;;;;14.73;71.26172;95787.36;;;;
2019/06/28 02:13:53;;;;;;;4.099999;3.7;;;;;;;14.73;71.26172;95787.36;;;;
2019/06/28 02:14:54;;;;;;;4.099999;3.7;;;;;;;14.73;71.26172;95787.36;;;;
2019/06/28 02:15:55;;;;;;;4.099999;3.7;;;;;;;14.73;71.26172;95787.36;;;;
2019/06/28 02:16:56;;;;;;;4.099999;3.7;;;;;;;14.73;71.26172;95787.36;;;;
2019/06/28 02:17:57;;;;;;;4.099999;3.7;;;;;;;14.73;71.26172;95787.36;;;;
2019/06/28 02:18:58;;;;;;;4.099999;3.7;;;;;;;14.73;71.26172;95787.36;;;;
2019/06/28 02:20:00;;;;;;;4.099999;3.7;;;;;;;14.73;71.26172;95787.36;;;;
2019/06/28 02:21:01;;;;;;;4.099999;3.7;;;;;;;14.73;71.26172;95787.36;;;;
2019/06/28 02:22:02;;;;;;;4.099999;3.7;;;;;;;14.73;71.26172;95787.36;;;;
2019/06/28 02:23:03;;;;;;;4.099999;3.7;;;;;;;14.73;71.26172;95787.36;;;;
2019/06/28 02:24:05;;;;;;;4.099999;3.7;;;;;;;14.73;71.26172;95787.36;;;;
2019/06/28 02:25:06;;;;;;;5.400001;4.45;;;;;;;14.54;72.08691;95788.56;;;;
2019/06/28 02:26:08;;;;;;;5.400001;4.45;;;;;;;14.54;72.08691;95788.56;;;;
2019/06/28 02:27:09;;;;;;;5.400001;4.45;;;;;;;14.54;72.08691;95788.56;;;;
2019/06/28 02:28:10;;;;;;;5.400001;4.45;;;;;;;14.54;72.08691;95788.56;;;;
2019/06/28 02:29:11;;;;;;;5.400001;4.45;;;;;;;14.54;72.08691;95788.56;;;;
2019/06/28 02:30:12;;;;;;;5.400001;4.45;;;;;;;14.54;72.08691;95788.56;;;;
2019/06/28 02:31:14;;;;;;;5.400001;4.45;;;;;;;14.54;72.08691;95788.56;;;;
2019/06/28 02:32:15;;;;;;;5.400001;4.45;;;;;;;14.54;72.08691;95788.56;;;;
2019/06/28 02:33:16;;;;;;;5.400001;4.45;;;;;;;14.54;72.08691;95788.56;;;;
2019/06/28 02:34:17;;;;;;;5.400001;4.45;;;;;;;14.54;72.08691;95788.56;;;;
2019/06/28 02:35:18;;;;;;;5.400001;4.45;;;;;;;14.54;72.08691;95788.56;;;;
2019/06/28 02:36:19;;;;;;;5.3;4.25;;;;;;;14.41;72.85352;95794.31;;;;
2019/06/28 02:37:20;;;;;;;5.3;4.25;;;;;;;14.41;72.85352;95794.31;;;;
2019/06/28 02:38:22;;;;;;;5.3;4.25;;;;;;;14.41;72.85352;95794.31;;;;
2019/06/28 02:39:23;;;;;;;5.3;4.25;;;;;;;14.41;72.85352;95794.31;;;;
2019/06/28 02:40:24;;;;;;;5.3;4.25;;;;;;;14.41;72.85352;95794.31;;;;
2019/06/28 02:41:25;;;;;;;5.3;4.25;;;;;;;14.41;72.85352;95794.31;;;;
2019/06/28 02:42:26;;;;;;;5.3;4.25;;;;;;;14.41;72.85352;95794.31;;;;
2019/06/28 02:43:30;;;;;;;5.3;4.25;;;;;;;14.41;72.85352;95794.31;;;;
2019/06/28 02:44:32;;;;;;;5.3;4.25;;;;;;;14.41;72.85352;95794.31;;;;
2019/06/28 02:45:33;;;;;;;5.3;4.25;;;;;;;14.41;72.85352;95794.31;;;;
2019/06/28 02:46:34;;;;;;;7.15;4.45;;;;;;;14.26;73.2627;95787.27;;;;
2019/06/28 02:47:35;;;;;;;7.15;4.45;;;;;;;14.26;73.2627;95787.27;;;;
2019/06/28 02:48:36;;;;;;;7.15;4.45;;;;;;;14.26;73.2627;95787.27;;;;
2019/06/28 02:49:38;;;;;;;7.15;4.45;;;;;;;14.26;73.2627;95787.27;;;;
2019/06/28 02:50:39;;;;;;;7.15;4.45;;;;;;;14.26;73.2627;95787.27;;;;
2019/06/28 02:51:40;;;;;;;7.15;4.45;;;;;;;14.26;73.2627;95787.27;;;;
2019/06/28 02:52:41;;;;;;;7.15;4.45;;;;;;;14.26;73.2627;95787.27;;;;
2019/06/28 02:53:42;;;;;;;7.15;4.45;;;;;;;14.26;73.2627;95787.27;;;;
2019/06/28 02:54:43;;;;;;;7.15;4.45;;;;;;;14.26;73.2627;95787.27;;;;
2019/06/28 02:55:44;;;;;;;7.15;4.45;;;;;;;14.26;73.2627;95787.27;;;;
2019/06/28 02:56:45;;;;;;;5;4.4;;;;;;;14.16;73.34082;95792.1;;;;
2019/06/28 02:57:46;;;;;;;5;4.4;;;;;;;14.16;73.34082;95792.1;;;;
2019/06/28 02:58:48;;;;;;;5;4.4;;;;;;;14.16;73.34082;95792.1;;;;
2019/06/28 02:59:49;;;;;;;5;4.4;;;;;;;14.16;73.34082;95792.1;;;;
2019/06/28 03:00:50;;;;;;;5;4.4;;;;;;;14.16;73.34082;95792.1;;;;
2019/06/28 03:01:51;;;;;;;5;4.4;;;;;;;14.16;73.34082;95792.1;;;;
2019/06/28 03:02:52;;;;;;;5;4.4;;;;;;;14.16;73.34082;95792.1;;;;
2019/06/28 03:03:53;;;;;;;5;4.4;;;;;;;14.16;73.34082;95792.1;;;;
2019/06/28 03:04:54;;;;;;;5;4.4;;;;;;;14.16;73.34082;95792.1;;;;
2019/06/28 03:05:55;;;;;;;5;4.4;;;;;;;14.16;73.34082;95792.1;;;;
2019/06/28 03:06:57;;;;;;;5;4.4;;;;;;;14.16;73.34082;95792.1;;;;
2019/06/28 03:07:58;;;;;;;4.45;4.05;;;;;;;14;73.58496;95782.87;;;;
2019/06/28 03:08:59;;;;;;;4.45;4.05;;;;;;;14;73.58496;95782.87;;;;
2019/06/28 03:10:00;;;;;;;4.45;4.05;;;;;;;14;73.58496;95782.87;;;;
2019/06/28 03:11:01;;;;;;;4.45;4.05;;;;;;;14;73.58496;95782.87;;;;
2019/06/28 03:12:02;;;;;;;4.45;4.05;;;;;;;14;73.58496;95782.87;;;;
2019/06/28 03:13:04;;;;;;;4.45;4.05;;;;;;;14;73.58496;95782.87;;;;
2019/06/28 03:14:05;;;;;;;4.45;4.05;;;;;;;14;73.58496;95782.87;;;;
2019/06/28 03:15:06;;;;;;;4.45;4.05;;;;;;;14;73.58496;95782.87;;;;
2019/06/28 03:16:07;;;;;;;4.45;4.05;;;;;;;14;73.58496;95782.87;;;;
2019/06/28 03:17:08;;;;;;;4.45;4.05;;;;;;;14;73.58496;95782.87;;;;
2019/06/28 03:18:09;;;;;;;5;4.400001;;;;;;;13.93;73.92871;95772.71;;;;
2019/06/28 03:19:11;;;;;;;5;4.400001;;;;;;;13.93;73.92871;95772.71;;;;
2019/06/28 03:20:12;;;;;;;5;4.400001;;;;;;;13.93;73.92871;95772.71;;;;
2019/06/28 03:21:13;;;;;;;5;4.400001;;;;;;;13.93;73.92871;95772.71;;;;
2019/06/28 03:22:14;;;;;;;5;4.400001;;;;;;;13.93;73.92871;95772.71;;;;
2019/06/28 03:23:15;;;;;;;5;4.400001;;;;;;;13.93;73.92871;95772.71;;;;
2019/06/28 03:24:16;;;;;;;5;4.400001;;;;;;;13.93;73.92871;95772.71;;;;
2019/06/28 03:25:17;;;;;;;5;4.400001;;;;;;;13.93;73.92871;95772.71;;;;
2019/06/28 03:26:18;;;;;;;5;4.400001;;;;;;;13.93;73.92871;95772.71;;;;
2019/06/28 03:27:20;;;;;;;5;4.400001;;;;;;;13.93;73.92871;95772.71;;;;
2019/06/28 03:28:21;;;;;;;5;4.400001;;;;;;;13.93;73.92871;95772.71;;;;
2019/06/28 03:29:22;;;;;;;4.799999;4.35;;;;;;;13.82;74.41602;95767.74;;;;
2019/06/28 03:30:23;;;;;;;4.799999;4.35;;;;;;;13.82;74.41602;95767.74;;;;
2019/06/28 03:31:24;;;;;;;4.799999;4.35;;;;;;;13.82;74.41602;95767.74;;;;
2019/06/28 03:32:25;;;;;;;4.799999;4.35;;;;;;;13.82;74.41602;95767.74;;;;
2019/06/28 03:33:26;;;;;;;4.799999;4.35;;;;;;;13.82;74.41602;95767.74;;;;
2019/06/28 03:34:27;;;;;;;4.799999;4.35;;;;;;;13.82;74.41602;95767.74;;;;
2019/06/28 03:35:28;;;;;;;4.799999;4.35;;;;;;;13.82;74.41602;95767.74;;;;
2019/06/28 03:36:30;;;;;;;4.799999;4.35;;;;;;;13.82;74.41602;95767.74;;;;
2019/06/28 03:37:31;;;;;;;4.799999;4.35;;;;;;;13.82;74.41602;95767.74;;;;
2019/06/28 03:38:32;;;;;;;4.799999;4.35;;;;;;;13.82;74.41602;95767.74;;;;
2019/06/28 03:39:33;;;;;;;6.2;4.4;;;;;;;13.86;74.76758;95773.91;;;;
2019/06/28 03:40:34;;;;;;;6.2;4.4;;;;;;;13.86;74.76758;95773.91;;;;
2019/06/28 03:41:35;;;;;;;6.2;4.4;;;;;;;13.86;74.76758;95773.91;;;;
2019/06/28 03:42:36;;;;;;;6.2;4.4;;;;;;;13.86;74.76758;95773.91;;;;
2019/06/28 03:43:37;;;;;;;6.2;4.4;;;;;;;13.86;74.76758;95773.91;;;;
2019/06/28 03:44:38;;;;;;;6.2;4.4;;;;;;;13.86;74.76758;95773.91;;;;
2019/06/28 03:45:39;;;;;;;6.2;4.4;;;;;;;13.86;74.76758;95773.91;;;;
2019/06/28 03:46:41;;;;;;;6.2;4.4;;;;;;;13.86;74.76758;95773.91;;;;
2019/06/28 03:47:42;;;;;;;6.2;4.4;;;;;;;13.86;74.76758;95773.91;;;;
2019/06/28 03:48:43;;;;;;;6.2;4.4;;;;;;;13.86;74.76758;95773.91;;;;
2019/06/28 03:49:44;;;;;;;5.749999;4.75;;;;;;;13.84;74.93848;95773.22;;;;
2019/06/28 03:50:45;;;;;;;5.749999;4.75;;;;;;;13.84;74.93848;95773.22;;;;
2019/06/28 03:51:46;;;;;;;5.749999;4.75;;;;;;;13.84;74.93848;95773.22;;;;
2019/06/28 03:52:47;;;;;;;5.749999;4.75;;;;;;;13.84;74.93848;95773.22;;;;
2019/06/28 03:53:49;;;;;;;5.749999;4.75;;;;;;;13.84;74.93848;95773.22;;;;
2019/06/28 03:54:50;;;;;;;5.749999;4.75;;;;;;;13.84;74.93848;95773.22;;;;
2019/06/28 03:55:51;;;;;;;5.749999;4.75;;;;;;;13.84;74.93848;95773.22;;;;
2019/06/28 03:56:52;;;;;;;5.749999;4.75;;;;;;;13.84;74.93848;95773.22;;;;
2019/06/28 03:57:53;;;;;;;5.749999;4.75;;;;;;;13.84;74.93848;95773.22;;;;
2019/06/28 03:58:54;;;;;;;5.749999;4.75;;;;;;;13.84;74.93848;95773.22;;;;
2019/06/28 03:59:55;;;;;;;5.749999;4.75;;;;;;;13.84;74.93848;95773.22;;;;
2019/06/28 04:00:57;;;;;;;5.899999;4.4;;;;;;;13.9;75.23926;95771.01;;;;
2019/06/28 04:01:58;;;;;;;5.899999;4.4;;;;;;;13.9;75.23926;95771.01;;;;
2019/06/28 04:02:59;;;;;;;5.899999;4.4;;;;;;;13.9;75.23926;95771.01;;;;
2019/06/28 04:04:00;;;;;;;5.899999;4.4;;;;;;;13.9;75.23926;95771.01;;;;
2019/06/28 04:05:01;;;;;;;5.899999;4.4;;;;;;;13.9;75.23926;95771.01;;;;
2019/06/28 04:06:02;;;;;;;5.899999;4.4;;;;;;;13.9;75.23926;95771.01;;;;
2019/06/28 04:07:04;;;;;;;5.899999;4.4;;;;;;;13.9;75.23926;95771.01;;;;
2019/06/28 04:08:05;;;;;;;5.899999;4.4;;;;;;;13.9;75.23926;95771.01;;;;
2019/06/28 04:09:06;;;;;;;5.899999;4.4;;;;;;;13.9;75.23926;95771.01;;;;
2019/06/28 04:10:07;;;;;;;5.899999;4.4;;;;;;;13.9;75.23926;95771.01;;;;
2019/06/28 04:11:09;;;;;;;5.349999;4.5;;;;;;;13.9;75.39063;95780.41;;;;
2019/06/28 04:12:10;;;;;;;5.349999;4.5;;;;;;;13.9;75.39063;95780.41;;;;
2019/06/28 04:13:11;;;;;;;5.349999;4.5;;;;;;;13.9;75.39063;95780.41;;;;
2019/06/28 04:14:12;;;;;;;5.349999;4.5;;;;;;;13.9;75.39063;95780.41;;;;
2019/06/28 04:15:13;;;;;;;5.349999;4.5;;;;;;;13.9;75.39063;95780.41;;;;
2019/06/28 04:16:15;;;;;;;5.349999;4.5;;;;;;;13.9;75.39063;95780.41;;;;
2019/06/28 04:17:16;;;;;;;5.349999;4.5;;;;;;;13.9;75.39063;95780.41;;;;
2019/06/28 04:18:17;;;;;;;5.349999;4.5;;;;;;;13.9;75.39063;95780.41;;;;
2019/06/28 04:19:18;;;;;;;5.349999;4.5;;;;;;;13.9;75.39063;95780.41;;;;
2019/06/28 04:20:19;;;;;;;5.349999;4.5;;;;;;;13.9;75.39063;95780.41;;;;
2019/06/28 04:21:20;;;;;;;5.349999;4.5;;;;;;;13.9;75.39063;95780.41;;;;
2019/06/28 04:22:21;;;;;;;6.3;4.45;;;;;;;14.04;75.67188;95789.98;;;;
2019/06/28 04:23:22;;;;;;;6.3;4.45;;;;;;;14.04;75.67188;95789.98;;;;
2019/06/28 04:24:23;;;;;;;6.3;4.45;;;;;;;14.04;75.67188;95789.98;;;;
2019/06/28 04:25:25;;;;;;;6.3;4.45;;;;;;;14.04;75.67188;95789.98;;;;
2019/06/28 04:26:26;;;;;;;6.3;4.45;;;;;;;14.04;75.67188;95789.98;;;;
2019/06/28 04:27:27;;;;;;;6.3;4.45;;;;;;;14.04;75.67188;95789.98;;;;
2019/06/28 04:28:28;;;;;;;6.3;4.45;;;;;;;14.04;75.67188;95789.98;;;;
2019/06/28 04:29:29;;;;;;;6.3;4.45;;;;;;;14.04;75.67188;95789.98;;;;
2019/06/28 04:30:30;;;;;;;6.3;4.45;;;;;;;14.04;75.67188;95789.98;;;;
2019/06/28 04:31:31;;;;;;;6.3;4.45;;;;;;;14.04;75.67188;95789.98;;;;
2019/06/28 04:32:32;;;;;;;6;4.6;;;;;;;14.14;75.59375;95796.41;;;;
2019/06/28 04:33:33;;;;;;;6;4.6;;;;;;;14.14;75.59375;95796.41;;;;
2019/06/28 04:34:34;;;;;;;6;4.6;;;;;;;14.14;75.59375;95796.41;;;;
2019/06/28 04:35:36;;;;;;;6;4.6;;;;;;;14.14;75.59375;95796.41;;;;
2019/06/28 04:36:37;;;;;;;6;4.6;;;;;;;14.14;75.59375;95796.41;;;;
2019/06/28 04:37:38;;;;;;;6;4.6;;;;;;;14.14;75.59375;95796.41;;;;
2019/06/28 04:38:39;;;;;;;6;4.6;;;;;;;14.14;75.59375;95796.41;;;;
2019/06/28 04:39:40;;;;;;;6;4.6;;;;;;;14.14;75.59375;95796.41;;;;
2019/06/28 04:40:41;;;;;;;6;4.6;;;;;;;14.14;75.59375;95796.41;;;;
2019/06/28 04:41:42;;;;;;;6;4.6;;;;;;;14.14;75.59375;95796.41;;;;
2019/06/28 04:42:43;;;;;;;4.6;4.150001;;;;;;;14.37;75.60059;95802.28;;;;
2019/06/28 04:43:44;;;;;;;4.6;4.150001;;;;;;;14.37;75.60059;95802.28;;;;
2019/06/28 04:44:45;;;;;;;4.6;4.150001;;;;;;;14.37;75.60059;95802.28;;;;
2019/06/28 04:45:46;;;;;;;4.6;4.150001;;;;;;;14.37;75.60059;95802.28;;;;
2019/06/28 04:46:48;;;;;;;4.6;4.150001;;;;;;;14.37;75.60059;95802.28;;;;
2019/06/28 04:47:49;;;;;;;4.6;4.150001;;;;;;;14.37;75.60059;95802.28;;;;
2019/06/28 04:48:50;;;;;;;4.6;4.150001;;;;;;;14.37;75.60059;95802.28;;;;
2019/06/28 04:49:51;;;;;;;4.6;4.150001;;;;;;;14.37;75.60059;95802.28;;;;
2019/06/28 04:50:52;;;;;;;4.6;4.150001;;;;;;;14.37;75.60059;95802.28;;;;
2019/06/28 04:51:53;;;;;;;4.6;4.150001;;;;;;;14.37;75.60059;95802.28;;;;
2019/06/28 04:52:54;;;;;;;4.6;4.150001;;;;;;;14.37;75.60059;95802.28;;;;
2019/06/28 04:53:55;;;;;;;5.25;4.1;;;;;;;14.59;75.56152;95807.23;;;;
2019/06/28 04:54:57;;;;;;;5.25;4.1;;;;;;;14.59;75.56152;95807.23;;;;
2019/06/28 04:55:58;;;;;;;5.25;4.1;;;;;;;14.59;75.56152;95807.23;;;;
2019/06/28 04:56:59;;;;;;;5.25;4.1;;;;;;;14.59;75.56152;95807.23;;;;
2019/06/28 04:58:00;;;;;;;5.25;4.1;;;;;;;14.59;75.56152;95807.23;;;;
2019/06/28 04:59:01;;;;;;;5.25;4.1;;;;;;;14.59;75.56152;95807.23;;;;
2019/06/28 05:00:02;;;;;;;5.25;4.1;;;;;;;14.59;75.56152;95807.23;;;;
2019/06/28 05:01:04;;;;;;;5.25;4.1;;;;;;;14.59;75.56152;95807.23;;;;
2019/06/28 05:02:05;;;;;;;5.25;4.1;;;;;;;14.59;75.56152;95807.23;;;;
2019/06/28 05:03:06;;;;;;;5.25;4.1;;;;;;;14.59;75.56152;95807.23;;;;
2019/06/28 05:04:07;;;;;;;4.85;4.15;;;;;;;14.96;75.20313;95785.78;;;;
2019/06/28 05:05:08;;;;;;;4.85;4.15;;;;;;;14.96;75.20313;95785.78;;;;
2019/06/28 05:06:10;;;;;;;4.85;4.15;;;;;;;14.96;75.20313;95785.78;;;;
2019/06/28 05:07:11;;;;;;;4.85;4.15;;;;;;;14.96;75.20313;95785.78;;;;
2019/06/28 05:08:12;;;;;;;4.85;4.15;;;;;;;14.96;75.20313;95785.78;;;;
2019/06/28 05:09:13;;;;;;;4.85;4.15;;;;;;;14.96;75.20313;95785.78;;;;
2019/06/28 05:10:14;;;;;;;4.85;4.15;;;;;;;14.96;75.20313;95785.78;;;;
2019/06/28 05:11:16;;;;;;;4.85;4.15;;;;;;;14.96;75.20313;95785.78;;;;
2019/06/28 05:12:17;;;;;;;4.85;4.15;;;;;;;14.96;75.20313;95785.78;;;;
2019/06/28 05:13:18;;;;;;;4.85;4.15;;;;;;;14.96;75.20313;95785.78;;;;
2019/06/28 05:14:19;;;;;;;4.85;4.15;;;;;;;14.96;75.20313;95785.78;;;;
2019/06/28 05:15:20;;;;;;;5.1;3.95;;;;;;;15.41;74.66406;95800.03;;;;
2019/06/28 05:16:21;;;;;;;5.1;3.95;;;;;;;15.41;74.66406;95800.03;;;;
2019/06/28 05:17:22;;;;;;;5.1;3.95;;;;;;;15.41;74.66406;95800.03;;;;
2019/06/28 05:18:23;;;;;;;5.1;3.95;;;;;;;15.41;74.66406;95800.03;;;;
2019/06/28 05:19:25;;;;;;;5.1;3.95;;;;;;;15.41;74.66406;95800.03;;;;
2019/06/28 05:20:26;;;;;;;5.1;3.95;;;;;;;15.41;74.66406;95800.03;;;;
2019/06/28 05:21:27;;;;;;;5.1;3.95;;;;;;;15.41;74.66406;95800.03;;;;
2019/06/28 05:22:28;;;;;;;5.1;3.95;;;;;;;15.41;74.66406;95800.03;;;;
2019/06/28 05:23:29;;;;;;;5.1;3.95;;;;;;;15.41;74.66406;95800.03;;;;
2019/06/28 05:24:30;;;;;;;5.1;3.95;;;;;;;15.41;74.66406;95800.03;;;;
2019/06/28 05:25:31;;;;;;;5.900001;3.85;;;;;;;15.92;73.88281;95805.53;;;;
2019/06/28 05:26:32;;;;;;;5.900001;3.85;;;;;;;15.92;73.88281;95805.53;;;;
2019/06/28 05:27:33;;;;;;;5.900001;3.85;;;;;;;15.92;73.88281;95805.53;;;;
2019/06/28 05:28:35;;;;;;;5.900001;3.85;;;;;;;15.92;73.88281;95805.53;;;;
2019/06/28 05:29:36;;;;;;;5.900001;3.85;;;;;;;15.92;73.88281;95805.53;;;;
2019/06/28 05:30:37;;;;;;;5.900001;3.85;;;;;;;15.92;73.88281;95805.53;;;;
2019/06/28 05:31:38;;;;;;;5.900001;3.85;;;;;;;15.92;73.88281;95805.53;;;;
2019/06/28 05:32:39;;;;;;;5.900001;3.85;;;;;;;15.92;73.88281;95805.53;;;;
2019/06/28 05:33:40;;;;;;;5.900001;3.85;;;;;;;15.92;73.88281;95805.53;;;;
2019/06/28 05:34:41;;;;;;;5.900001;3.85;;;;;;;15.92;73.88281;95805.53;;;;
2019/06/28 05:35:42;;;;;;;5.900001;3.85;;;;;;;15.92;73.88281;95805.53;;;;
2019/06/28 05:36:43;;;;;;;5.900001;3.85;;;;;;;15.92;73.88281;95805.53;;;;
2019/06/28 05:37:44;;;;;;;5.900001;3.85;;;;;;;15.92;73.88281;95805.53;;;;
2019/06/28 05:38:45;;;;;;;5.900001;3.85;;;;;;;15.92;73.88281;95805.53;;;;
2019/06/28 05:39:47;;;;;;;5.900001;3.85;;;;;;;15.92;73.88281;95805.53;;;;
2019/06/28 05:40:48;;;;;;;5.900001;3.85;;;;;;;15.92;73.88281;95805.53;;;;
2019/06/28 05:41:49;;;;;;;5.900001;3.85;;;;;;;15.92;73.88281;95805.53;;;;
2019/06/28 05:42:50;;;;;;;5.900001;3.85;;;;;;;15.92;73.88281;95805.53;;;;